Time;durP1;ratioP1;P1;durP2;ratioP2;P2;SDS_P1;SDS_P2;PMS_P1;PMS_P2;Temp;Humidity;BMP_temperature;BMP_pressure;BME280_temperature;BME280_humidity;BME280_pressure;Samples;Min_cycle;Max_cycle;Signal;HPM_P1;HPM_P2
2022/05/27 00:00:12;;;;;;;0.43;0.43;;;;;;;24.85;42.64;95603.00;4971849;28;20217;-69
2022/05/27 00:02:39;;;;;;;0.20;0.20;;;;;;;24.70;42.90;95603.63;4972304;28;20694;-70
2022/05/27 00:05:07;;;;;;;0.13;0.13;;;;;;;24.96;42.38;95604.19;4972269;28;20198;-70
2022/05/27 00:07:34;;;;;;;0.70;0.70;;;;;;;24.77;42.48;95606.56;4973074;28;20630;-71
2022/05/27 00:10:02;;;;;;;0.60;0.60;;;;;;;24.50;43.44;95612.41;4972629;28;20565;-71
2022/05/27 00:12:29;;;;;;;0.10;0.10;;;;;;;23.93;44.39;95597.88;4972723;28;20280;-70
2022/05/27 00:14:55;;;;;;;0.53;0.53;;;;;;;24.03;44.53;95592.97;4972696;28;20207;-71
2022/05/27 00:17:23;;;;;;;0.20;0.20;;;;;;;24.43;43.69;95596.06;4972408;28;20290;-71
2022/05/27 00:19:50;;;;;;;0.30;0.30;;;;;;;24.40;44.00;95607.41;4972551;28;20207;-69
2022/05/27 00:22:17;;;;;;;0.50;0.50;;;;;;;24.58;43.49;95610.78;4972123;28;20235;-70
2022/05/27 00:24:44;;;;;;;2.00;0.93;;;;;;;24.59;43.82;95610.47;4972511;28;20675;-71
2022/05/27 00:27:11;;;;;;;0.60;0.60;;;;;;;24.44;43.66;95612.91;4972343;28;20191;-72
2022/05/27 00:29:38;;;;;;;1.57;0.70;;;;;;;24.31;44.03;95593.28;4955065;28;20210;-71
2022/05/27 00:32:25;;;;;;;0.60;0.60;;;;;;;24.36;44.13;95601.13;4972472;28;20698;-70
2022/05/27 00:34:52;;;;;;;0.13;0.13;;;;;;;24.10;44.88;95597.84;4972705;28;20203;-69
2022/05/27 00:37:19;;;;;;;0.83;0.83;;;;;;;24.05;44.84;95596.13;4972240;28;20221;-70
2022/05/27 00:39:46;;;;;;;0.30;0.30;;;;;;;23.85;45.06;95601.38;4972455;28;20207;-71
2022/05/27 00:42:13;;;;;;;0.27;0.27;;;;;;;23.97;45.17;95588.09;4954979;28;20501;-70
2022/05/27 00:44:40;;;;;;;0.30;0.30;;;;;;;23.72;45.90;95595.13;4972362;28;20667;-70
2022/05/27 00:47:11;;;;;;;0.50;0.50;;;;;;;23.79;45.69;95598.13;4972575;28;20191;-70
2022/05/27 00:49:48;;;;;;;0.30;0.30;;;;;;;23.67;45.37;95610.59;4955192;28;20207;-70
2022/05/27 00:52:19;;;;;;;9.50;1.70;;;;;;;23.72;44.97;95581.75;4973362;28;20249;-70
2022/05/27 00:54:46;;;;;;;0.70;0.70;;;;;;;23.63;45.54;95590.94;4972534;28;20198;-71
2022/05/27 00:57:17;;;;;;;0.53;0.53;;;;;;;23.77;45.62;95599.53;4971864;28;20209;-70
2022/05/27 01:00:01;;;;;;;0.10;0.10;;;;;;;23.76;45.38;95597.94;4971625;28;20728;-71
2022/05/27 01:02:28;;;;;;;0.27;0.27;;;;;;;23.68;45.62;95604.13;4972084;28;20636;-70
2022/05/27 01:04:58;;;;;;;0.20;0.20;;;;;;;23.77;45.17;95594.19;4954863;28;20258;-69
2022/05/27 01:07:25;;;;;;;1.33;1.23;;;;;;;23.63;45.32;95578.31;4972052;28;20207;-69
2022/05/27 01:09:53;;;;;;;0.57;0.57;;;;;;;23.77;45.12;95597.66;4971617;28;20242;-70
2022/05/27 01:12:35;;;;;;;0.10;0.10;;;;;;;23.88;45.20;95600.75;4971560;28;20237;-72
2022/05/27 01:15:04;;;;;;;0.30;0.30;;;;;;;23.09;46.66;95603.16;4971004;28;20685;-70
2022/05/27 01:17:46;;;;;;;0.30;0.30;;;;;;;23.10;46.90;95599.38;4971244;28;20660;-71
2022/05/27 01:20:19;;;;;;;0.50;0.50;;;;;;;23.36;46.20;95592.09;4971297;28;20210;-71
2022/05/27 01:23:08;;;;;;;0.93;0.93;;;;;;;23.46;46.02;95588.31;4971694;28;20231;-68
2022/05/27 01:25:53;;;;;;;0.80;0.80;;;;;;;23.55;45.46;95591.75;4971883;28;20294;-70
2022/05/27 01:28:29;;;;;;;0.37;0.37;;;;;;;23.21;46.36;95581.88;4971240;28;20243;-70
2022/05/27 01:31:24;;;;;;;0.67;0.67;;;;;;;23.43;45.68;95584.38;4971215;28;20199;-70
2022/05/27 01:34:16;;;;;;;0.20;0.20;;;;;;;22.94;46.57;95588.38;4971004;28;20230;-70
2022/05/27 01:37:08;;;;;;;0.40;0.40;;;;;;;23.25;46.31;95587.41;4971246;28;20191;-70
2022/05/27 01:39:43;;;;;;;0.30;0.30;;;;;;;23.45;45.87;95582.16;4971138;28;20191;-70
2022/05/27 01:42:23;;;;;;;0.83;0.83;;;;;;;23.58;45.47;95573.16;4970980;28;20223;-71
2022/05/27 01:45:00;;;;;;;0.67;0.67;;;;;;;23.48;46.16;95575.41;4971185;28;20204;-70
2022/05/27 01:47:50;;;;;;;0.50;0.50;;;;;;;23.38;46.00;95576.53;4970877;28;20191;-70
2022/05/27 01:50:34;;;;;;;0.40;0.40;;;;;;;23.30;46.43;95574.69;4970848;28;20202;-71
2022/05/27 01:53:11;;;;;;;0.37;0.37;;;;;;;23.19;46.06;95584.13;4970833;28;20239;-70
2022/05/27 01:56:01;;;;;;;0.23;0.23;;;;;;;23.17;46.22;95588.19;4971036;28;20198;-71
2022/05/27 01:58:34;;;;;;;0.63;0.57;;;;;;;23.13;46.14;95580.03;4960857;28;20229;-71
2022/05/27 02:01:06;;;;;;;0.20;0.20;;;;;;;22.65;47.92;95584.78;4970686;28;20312;-69
2022/05/27 02:03:45;;;;;;;0.37;0.37;;;;;;;23.02;46.70;95574.22;4971189;28;20199;-69
2022/05/27 02:06:19;;;;;;;0.23;0.23;;;;;;;23.24;46.29;95580.47;4970784;28;20306;-70
2022/05/27 02:09:12;;;;;;;0.27;0.27;;;;;;;23.41;46.10;95575.13;4970777;28;20233;-70
2022/05/27 02:11:43;;;;;;;1.70;1.23;;;;;;;23.49;45.50;95576.97;4970323;28;20570;-70
2022/05/27 02:14:16;;;;;;;0.60;0.47;;;;;;;23.19;46.32;95586.00;4970662;28;20694;-69
2022/05/27 02:16:49;;;;;;;0.83;0.83;;;;;;;23.13;46.10;95586.16;4970960;28;20207;-70
2022/05/27 02:19:19;;;;;;;0.23;0.23;;;;;;;23.19;45.99;95586.00;4953160;28;20206;-70
2022/05/27 02:21:53;;;;;;;0.30;0.30;;;;;;;22.76;46.67;95581.47;4970219;28;20235;-69
2022/05/27 02:24:20;;;;;;;0.60;0.60;;;;;;;22.91;46.88;95578.34;4970690;28;20201;-70
2022/05/27 02:26:55;;;;;;;1.20;0.97;;;;;;;22.99;46.53;95585.53;4969604;28;20203;-71
2022/05/27 02:29:29;;;;;;;0.43;0.43;;;;;;;22.93;47.05;95589.50;4970571;28;20269;-70
2022/05/27 02:32:07;;;;;;;1.37;1.27;;;;;;;22.93;46.46;95575.34;4970229;28;20389;-71
2022/05/27 02:37:32;;;;;;;0.20;0.20;;;;;;;22.67;47.06;95587.91;4970692;28;20230;-71
2022/05/27 02:40:04;;;;;;;0.20;0.20;;;;;;;22.99;46.46;95584.78;4970546;28;20640;-70
2022/05/27 02:42:52;;;;;;;0.20;0.20;;;;;;;22.99;46.06;95590.88;4970445;28;20201;-70
2022/05/27 02:45:53;;;;;;;0.40;0.40;;;;;;;23.10;46.04;95589.44;4970637;28;20258;-70
2022/05/27 02:48:31;;;;;;;2.27;1.70;;;;;;;22.95;46.36;95594.53;4970423;28;20203;-71
2022/05/27 02:51:11;;;;;;;0.13;0.13;;;;;;;22.76;46.94;95586.81;4970317;28;20198;-71
2022/05/27 02:54:01;;;;;;;0.20;0.20;;;;;;;22.91;46.25;95578.34;4969916;28;20214;-70
2022/05/27 02:56:38;;;;;;;0.30;0.30;;;;;;;22.95;46.27;95583.84;4970176;28;20254;-71
2022/05/27 02:59:10;;;;;;;0.30;0.30;;;;;;;22.83;46.91;95573.78;4972233;28;20719;-71
2022/05/27 03:01:37;;;;;;;0.20;0.20;;;;;;;22.92;46.84;95573.75;4974797;28;20203;-71
2022/05/27 03:04:05;;;;;;;0.47;0.47;;;;;;;22.82;47.27;95579.44;4970190;28;20339;-70
2022/05/27 03:07:23;;;;;;;0.70;0.70;;;;;;;22.98;46.63;95589.31;4970216;28;20289;-71
2022/05/27 03:10:20;;;;;;;0.53;0.53;;;;;;;22.71;47.70;95594.22;4927378;28;20633;-69
2022/05/27 03:13:18;;;;;;;0.60;0.60;;;;;;;21.67;49.83;95595.03;4969934;28;20211;-69
2022/05/27 03:16:05;;;;;;;0.57;0.57;;;;;;;21.92;49.50;95594.38;4970099;28;20270;-70
2022/05/27 03:19:05;;;;;;;0.57;0.57;;;;;;;22.30;48.87;95602.63;4970068;28;20641;-70
2022/05/27 03:22:06;;;;;;;0.30;0.30;;;;;;;22.38;48.42;95604.53;4969916;28;20319;-69
2022/05/27 03:24:39;;;;;;;0.63;0.63;;;;;;;22.29;48.37;95602.94;4970056;28;20198;-71
2022/05/27 03:27:42;;;;;;;0.40;0.40;;;;;;;22.55;48.33;95590.41;4969880;28;20204;-71
2022/05/27 03:30:25;;;;;;;0.53;0.53;;;;;;;22.40;48.32;95599.66;4970153;28;20650;-70
2022/05/27 03:33:08;;;;;;;0.30;0.30;;;;;;;22.26;48.70;95595.56;4970086;28;20223;-70
2022/05/27 03:35:44;;;;;;;1.50;1.40;;;;;;;22.40;48.45;95597.00;4970195;28;20200;-71
2022/05/27 03:38:25;;;;;;;0.40;0.40;;;;;;;22.51;48.33;95600.13;4971381;28;20206;-71
2022/05/27 03:40:58;;;;;;;0.40;0.40;;;;;;;22.58;48.12;95595.16;4973358;28;20347;-70
2022/05/27 03:43:27;;;;;;;0.10;0.10;;;;;;;22.46;48.13;95577.06;4973514;28;20211;-70
2022/05/27 03:45:57;;;;;;;0.43;0.43;;;;;;;22.72;48.06;95593.09;4973433;28;20223;-71
2022/05/27 03:48:27;;;;;;;2.57;1.33;;;;;;;22.63;48.79;95586.97;4956020;28;20291;-70
2022/05/27 03:50:59;;;;;;;0.47;0.47;;;;;;;22.81;48.23;95594.66;4973240;28;20206;-70
2022/05/27 03:54:12;;;;;;;0.33;0.33;;;;;;;22.86;47.77;95591.84;4972875;28;20266;-70
2022/05/27 03:56:14;;;;;;;0.87;0.87;;;;;;;23.04;47.67;95598.75;4956875;28;20207;-70
2022/05/27 03:58:41;;;;;;;7.70;1.13;;;;;;;23.01;47.57;95594.03;4973107;28;20602;-70
2022/05/27 04:01:08;;;;;;;0.57;0.53;;;;;;;22.87;48.33;95588.06;4972289;28;20191;-72
2022/05/27 04:03:35;;;;;;;0.27;0.27;;;;;;;23.06;48.21;95595.78;4972998;28;20297;-70
2022/05/27 04:06:02;;;;;;;0.33;0.33;;;;;;;22.88;48.45;95594.22;4973207;28;20199;-71
2022/05/27 04:08:29;;;;;;;0.43;0.43;;;;;;;22.90;48.39;95584.00;4973317;28;20641;-71
2022/05/27 04:10:56;;;;;;;2.27;0.97;;;;;;;22.67;49.23;95594.06;4973199;28;20211;-70
2022/05/27 04:13:22;;;;;;;1.67;1.43;;;;;;;22.93;48.43;95592.16;4972853;28;20737;-71
2022/05/27 04:15:49;;;;;;;0.47;0.47;;;;;;;22.88;48.56;95600.31;4973698;28;20294;-70
2022/05/27 04:18:16;;;;;;;0.50;0.50;;;;;;;22.77;48.33;95588.38;4973732;28;20207;-70
2022/05/27 04:20:43;;;;;;;0.67;0.67;;;;;;;22.54;50.11;95589.63;4971962;28;20231;-69
2022/05/27 04:23:11;;;;;;;1.33;0.90;;;;;;;22.79;48.82;95591.53;4976534;28;20211;-68
2022/05/27 04:25:38;;;;;;;0.43;0.43;;;;;;;22.79;48.77;95596.88;4952145;28;20683;-73
2022/05/27 04:28:05;;;;;;;0.33;0.33;;;;;;;22.71;48.37;95589.66;4987069;28;20720;-71
2022/05/27 04:30:32;;;;;;;1.33;1.10;;;;;;;22.72;48.41;95591.22;4991898;28;20194;-68
2022/05/27 04:32:59;;;;;;;0.83;0.83;;;;;;;23.04;47.89;95588.06;4992003;28;20280;-70
2022/05/27 04:35:26;;;;;;;0.60;0.60;;;;;;;23.11;47.97;95583.03;4974135;28;20195;-71
2022/05/27 04:37:53;;;;;;;1.13;1.03;;;;;;;22.46;49.78;95592.28;4938942;28;21020;-70
2022/05/27 04:40:21;;;;;;;0.93;0.93;;;;;;;22.58;49.46;95579.91;4972055;28;20258;-69
2022/05/27 04:42:47;;;;;;;0.30;0.30;;;;;;;22.21;50.68;95590.38;4972036;28;20678;-71
2022/05/27 04:45:14;;;;;;;0.40;0.40;;;;;;;22.45;49.55;95591.50;4972397;28;20207;-70
2022/05/27 04:47:41;;;;;;;0.43;0.43;;;;;;;22.67;49.38;95591.38;4972258;28;20188;-71
2022/05/27 04:50:10;;;;;;;0.77;0.77;;;;;;;22.44;50.25;95584.59;4971069;28;20262;-68
2022/05/27 04:52:38;;;;;;;0.10;0.10;;;;;;;23.10;49.29;95586.78;4972392;28;20631;-67
2022/05/27 04:55:09;;;;;;;3.00;2.30;;;;;;;23.43;48.23;95588.97;4972496;28;20254;-67
2022/05/27 04:57:39;;;;;;;1.17;1.17;;;;;;;23.43;48.79;95584.38;4971394;28;20203;-67
2022/05/27 05:00:28;;;;;;;2.40;1.00;;;;;;;23.67;47.78;95586.50;4972614;28;20697;-67
2022/05/27 05:02:55;;;;;;;1.00;0.97;;;;;;;23.41;46.24;95585.81;4972431;28;20210;-69
2022/05/27 05:05:25;;;;;;;0.60;0.60;;;;;;;23.34;46.79;95580.19;4971831;28;20258;-68
2022/05/27 05:07:57;;;;;;;4.03;2.53;;;;;;;23.16;48.09;95592.75;4971866;28;20238;-69
2022/05/27 05:10:25;;;;;;;0.47;0.47;;;;;;;23.04;48.66;95588.06;4972114;28;20235;-67
2022/05/27 05:12:52;;;;;;;2.17;1.10;;;;;;;23.47;47.67;95584.53;4972249;28;20226;-68
2022/05/27 05:15:20;;;;;;;0.20;0.20;;;;;;;23.41;48.40;95575.13;4971883;28;20199;-71
2022/05/27 05:17:48;;;;;;;1.40;1.33;;;;;;;23.36;49.04;95588.63;4972014;28;20187;-67
2022/05/27 05:20:18;;;;;;;0.50;0.50;;;;;;;23.06;49.42;95593.84;4971626;28;20253;-70
2022/05/27 05:22:45;;;;;;;2.70;2.50;;;;;;;23.22;48.58;95583.47;4972088;28;20238;-73
2022/05/27 05:25:12;;;;;;;1.47;1.37;;;;;;;23.52;48.19;95582.47;4971525;28;20195;-70
2022/05/27 05:27:40;;;;;;;0.97;0.97;;;;;;;23.84;46.28;95586.44;4971490;28;20207;-70
2022/05/27 05:30:11;;;;;;;0.43;0.43;;;;;;;23.90;45.76;95585.16;4971337;28;20191;-66
2022/05/27 05:32:39;;;;;;;0.20;0.20;;;;;;;23.46;44.90;95585.63;4970444;28;20257;-65
2022/05/27 05:35:06;;;;;;;0.50;0.50;;;;;;;23.70;44.52;95580.53;4969314;28;20746;-66
2022/05/27 05:37:33;;;;;;;0.40;0.40;;;;;;;23.36;45.44;95577.94;4969618;28;20214;-66
2022/05/27 05:40:07;;;;;;;1.00;0.90;;;;;;;23.75;45.51;95580.34;4969706;28;20210;-65
2022/05/27 05:42:34;;;;;;;1.30;1.20;;;;;;;23.80;45.48;95572.91;4954439;28;20198;-68
2022/05/27 05:45:01;;;;;;;0.77;0.77;;;;;;;23.85;45.83;95575.41;4971536;28;20671;-67
2022/05/27 05:47:28;;;;;;;0.40;0.33;;;;;;;23.96;45.29;95565.09;4971311;28;20269;-69
2022/05/27 05:49:55;;;;;;;0.30;0.30;;;;;;;23.92;45.81;95574.91;4971325;28;20199;-68
2022/05/27 05:52:22;;;;;;;0.30;0.30;;;;;;;23.68;44.11;95585.41;4971006;28;20254;-67
2022/05/27 05:54:48;;;;;;;4.03;1.13;;;;;;;24.23;43.99;95570.03;4971399;28;20589;-67
2022/05/27 05:57:15;;;;;;;1.80;1.30;;;;;;;24.28;44.21;95577.09;4970829;28;20192;-67
2022/05/27 05:59:42;;;;;;;1.43;1.30;;;;;;;24.20;45.01;95573.34;4970873;28;20657;-67
2022/05/27 06:02:09;;;;;;;0.53;0.53;;;;;;;24.05;43.68;95574.69;4970862;28;20293;-65
2022/05/27 06:04:36;;;;;;;0.40;0.40;;;;;;;24.21;43.81;95577.63;4970525;28;20670;-68
2022/05/27 06:07:11;;;;;;;0.83;0.83;;;;;;;24.49;42.71;95580.59;4970926;28;20198;-67
2022/05/27 06:09:38;;;;;;;0.33;0.33;;;;;;;24.23;41.93;95580.75;4970857;28;20242;-67
2022/05/27 06:12:05;;;;;;;0.77;0.67;;;;;;;24.60;43.06;95585.22;4970685;28;20199;-67
2022/05/27 06:14:32;;;;;;;0.43;0.43;;;;;;;24.47;42.91;95586.25;4971002;28;20238;-67
2022/05/27 06:16:59;;;;;;;0.67;0.67;;;;;;;24.42;42.09;95570.38;4970695;28;20611;-68
2022/05/27 06:19:25;;;;;;;0.80;0.80;;;;;;;24.61;42.39;95576.06;4971334;28;20590;-68
2022/05/27 06:21:52;;;;;;;1.50;0.60;;;;;;;24.62;41.91;95577.63;4970365;28;20789;-67
2022/05/27 06:24:19;;;;;;;0.40;0.40;;;;;;;24.91;41.21;95569.53;4970346;28;20270;-67
2022/05/27 06:26:46;;;;;;;0.40;0.40;;;;;;;24.75;41.09;95565.91;4970779;28;20608;-66
2022/05/27 06:34:43;;;;;;;0.40;0.40;;;;;;;24.88;40.86;95577.44;4971936;28;20726;-66
2022/05/27 06:37:15;;;;;;;0.50;0.50;;;;;;;24.97;41.37;95576.28;4970567;28;20675;-67
2022/05/27 06:39:42;;;;;;;0.77;0.77;;;;;;;25.00;41.75;95572.13;4970511;28;20207;-67
2022/05/27 06:42:11;;;;;;;0.50;0.50;;;;;;;25.24;40.82;95569.53;4970328;28;20658;-67
2022/05/27 06:44:59;;;;;;;3.73;1.93;;;;;;;25.04;40.80;95567.69;4953149;28;20207;-66
2022/05/27 06:47:26;;;;;;;1.80;1.67;;;;;;;24.90;40.52;95557.25;4970673;28;20206;-66
2022/05/27 06:49:53;;;;;;;0.53;0.53;;;;;;;24.90;43.52;95551.88;4970624;28;20273;-68
2022/05/27 06:52:20;;;;;;;2.97;2.77;;;;;;;25.62;41.30;95553.97;4970822;28;20191;-69
2022/05/27 06:54:48;;;;;;;0.23;0.23;;;;;;;25.53;41.27;95552.53;4971042;28;20533;-67
2022/05/27 06:57:14;;;;;;;0.40;0.40;;;;;;;25.68;41.59;95549.97;4970308;28;20214;-66
2022/05/27 06:59:41;;;;;;;0.47;0.47;;;;;;;25.94;39.78;95546.94;4970382;28;20208;-66
2022/05/27 07:02:09;;;;;;;2.47;0.97;;;;;;;25.98;39.04;95542.47;4970627;28;20199;-65
2022/05/27 07:04:36;;;;;;;0.20;0.20;;;;;;;25.92;38.60;95549.97;4970477;28;20663;-67
2022/05/27 07:07:05;;;;;;;0.33;0.33;;;;;;;26.35;39.00;95552.06;4970267;28;20590;-67
2022/05/27 07:09:35;;;;;;;1.40;0.90;;;;;;;26.33;39.18;95538.19;4970209;28;20206;-66
2022/05/27 07:12:06;;;;;;;0.30;0.30;;;;;;;26.04;39.19;95541.13;4970387;28;20368;-65
2022/05/27 07:14:33;;;;;;;0.27;0.27;;;;;;;26.45;37.77;95540.88;4974603;28;20207;-66
2022/05/27 07:17:01;;;;;;;0.50;0.50;;;;;;;26.42;38.22;95535.38;4974533;28;20180;-66
2022/05/27 07:19:38;;;;;;;0.60;0.60;;;;;;;25.97;38.72;95527.47;4974507;28;20289;-68
2022/05/27 07:22:07;;;;;;;0.23;0.23;;;;;;;26.18;38.88;95525.47;4973823;28;20693;-67
2022/05/27 07:24:34;;;;;;;0.30;0.30;;;;;;;26.33;38.69;95527.44;4974428;28;20204;-68
2022/05/27 07:27:00;;;;;;;2.20;1.20;;;;;;;26.66;37.71;95519.94;4974022;28;20203;-66
2022/05/27 07:29:27;;;;;;;3.90;0.43;;;;;;;26.36;37.75;95526.78;4973502;28;20207;-66
2022/05/27 07:31:54;;;;;;;0.20;0.20;;;;;;;26.24;38.45;95513.34;4973618;28;20616;-66
2022/05/27 07:34:22;;;;;;;0.10;0.10;;;;;;;26.44;37.49;95517.03;4973983;28;20234;-68
2022/05/27 07:36:48;;;;;;;0.27;0.27;;;;;;;27.17;36.73;95515.59;4974428;28;20277;-66
2022/05/27 07:39:15;;;;;;;0.30;0.30;;;;;;;26.55;35.46;95507.34;4973679;28;20200;-65
2022/05/27 07:41:42;;;;;;;0.50;0.50;;;;;;;26.75;35.02;95501.81;4973420;28;20207;-67
2022/05/27 07:44:09;;;;;;;0.20;0.20;;;;;;;26.58;36.74;95502.06;4975598;28;20213;-67
2022/05/27 07:46:37;;;;;;;0.53;0.50;;;;;;;27.13;36.50;95497.81;4973287;28;20745;-66
2022/05/27 07:49:07;;;;;;;0.40;0.40;;;;;;;26.52;39.87;95492.69;4975214;28;20199;-67
2022/05/27 07:51:54;;;;;;;0.10;0.10;;;;;;;27.28;36.29;95486.28;4978820;28;20191;-66
2022/05/27 07:54:20;;;;;;;0.60;0.60;;;;;;;27.41;35.40;95479.72;4976618;28;20223;-67
2022/05/27 07:56:47;;;;;;;0.20;0.20;;;;;;;27.26;34.92;95472.41;4973636;28;20678;-66
2022/05/27 07:59:14;;;;;;;0.40;0.40;;;;;;;27.30;34.84;95484.03;4973559;28;20191;-69
2022/05/27 08:01:41;;;;;;;0.17;0.17;;;;;;;27.31;34.41;95475.63;4973459;28;20214;-67
2022/05/27 08:04:09;;;;;;;1.17;0.67;;;;;;;27.58;34.41;95484.75;4973324;28;20217;-67
2022/05/27 08:06:36;;;;;;;0.20;0.20;;;;;;;26.93;35.55;95492.28;4973229;28;20294;-66
2022/05/27 08:09:11;;;;;;;0.90;0.90;;;;;;;27.47;34.70;95483.69;4973114;28;20190;-66
2022/05/27 08:11:38;;;;;;;0.20;0.20;;;;;;;27.61;33.97;95478.69;4973286;28;20203;-66
2022/05/27 08:14:06;;;;;;;0.30;0.20;;;;;;;27.41;34.68;95474.34;4973033;28;20222;-67
2022/05/27 08:16:34;;;;;;;0.83;0.27;;;;;;;27.72;35.70;95471.59;4973666;28;20195;-66
2022/05/27 08:19:02;;;;;;;0.50;0.50;;;;;;;27.77;35.61;95460.59;4973904;28;20218;-66
2022/05/27 08:21:29;;;;;;;3.10;1.23;;;;;;;27.91;34.32;95474.38;4972715;28;20611;-66
2022/05/27 08:23:56;;;;;;;0.30;0.30;;;;;;;27.76;33.57;95464.41;4972086;28;20298;-67
2022/05/27 08:26:23;;;;;;;1.90;1.40;;;;;;;27.70;33.89;95471.97;4972839;28;20678;-67
2022/05/27 08:28:50;;;;;;;0.27;0.27;;;;;;;27.61;35.77;95462.53;4972927;28;20196;-68
2022/05/27 08:31:17;;;;;;;0.20;0.20;;;;;;;28.23;34.65;95457.00;4972798;28;20203;-66
2022/05/27 08:39:16;;;;;;;0.60;0.60;;;;;;;28.56;32.47;95451.94;4972477;28;20203;-66
2022/05/27 08:41:58;;;;;;;0.10;0.10;;;;;;;28.71;32.14;95444.88;4972865;28;20271;-66
2022/05/27 08:44:40;;;;;;;1.33;1.03;;;;;;;28.64;32.49;95448.25;4972567;28;20203;-66
2022/05/27 08:47:13;;;;;;;0.57;0.57;;;;;;;28.42;31.89;95443.53;4972000;28;20712;-67
2022/05/27 08:49:45;;;;;;;0.60;0.60;;;;;;;28.41;32.60;95441.19;4972105;28;20195;-66
2022/05/27 08:52:33;;;;;;;1.27;0.93;;;;;;;28.92;32.70;95435.25;4972235;28;20195;-67
2022/05/27 08:55:06;;;;;;;13.03;1.03;;;;;;;28.98;32.44;95433.84;4972496;28;20231;-66
2022/05/27 09:00:28;;;;;;;0.40;0.40;;;;;;;29.18;31.88;95431.88;4972046;28;20250;-66
2022/05/27 09:03:05;;;;;;;3.40;1.13;;;;;;;29.36;32.44;95421.41;4972602;28;20265;-66
2022/05/27 09:05:42;;;;;;;1.13;1.03;;;;;;;29.22;31.87;95426.53;4972345;28;20179;-66
2022/05/27 09:08:23;;;;;;;0.70;0.70;;;;;;;28.79;32.23;95425.00;4971998;28;20334;-65
2022/05/27 09:11:23;;;;;;;0.40;0.40;;;;;;;28.96;31.88;95419.94;4972086;28;20569;-65
2022/05/27 09:14:08;;;;;;;0.57;0.57;;;;;;;29.01;32.26;95415.38;4971364;28;20215;-66
2022/05/27 09:16:47;;;;;;;0.40;0.40;;;;;;;28.98;32.50;95414.94;4971571;28;20584;-67
2022/05/27 09:19:42;;;;;;;0.27;0.27;;;;;;;29.36;32.43;95422.16;4971738;28;20199;-64
2022/05/27 09:22:39;;;;;;;0.67;0.67;;;;;;;29.34;31.85;95418.28;4971378;28;20249;-66
2022/05/27 09:25:20;;;;;;;0.30;0.30;;;;;;;29.36;31.66;95416.00;4971625;28;20209;-65
2022/05/27 09:28:02;;;;;;;0.20;0.20;;;;;;;29.42;31.75;95412.63;4971491;28;20227;-65
2022/05/27 09:30:32;;;;;;;0.47;0.47;;;;;;;29.70;31.12;95412.31;4971354;28;20191;-66
2022/05/27 09:33:20;;;;;;;3.80;1.60;;;;;;;30.10;31.84;95412.47;4971689;28;20207;-68
2022/05/27 09:35:50;;;;;;;0.60;0.60;;;;;;;29.67;30.82;95400.25;4971465;28;20242;-66
2022/05/27 09:38:23;;;;;;;0.40;0.40;;;;;;;29.21;30.75;95389.91;4971374;28;20265;-66
2022/05/27 09:40:59;;;;;;;0.70;0.70;;;;;;;29.78;31.75;95390.41;4971556;28;20237;-66
2022/05/27 09:43:51;;;;;;;6.67;1.10;;;;;;;29.78;32.08;95386.94;4953923;28;20277;-66
2022/05/27 09:46:27;;;;;;;0.63;0.63;;;;;;;30.13;30.70;95373.88;4971159;28;20203;-66
2022/05/27 09:48:56;;;;;;;0.97;0.50;;;;;;;30.37;30.58;95373.44;4971137;28;20677;-66
2022/05/27 09:51:25;;;;;;;2.33;1.37;;;;;;;30.29;30.08;95379.88;4971308;28;20203;-67
2022/05/27 09:53:57;;;;;;;0.43;0.43;;;;;;;30.17;29.86;95374.72;4972083;28;20219;-65
2022/05/27 09:56:43;;;;;;;6.53;1.17;;;;;;;29.93;30.33;95369.78;4971920;28;20210;-65
2022/05/27 09:59:26;;;;;;;1.10;1.00;;;;;;;30.10;31.34;95363.81;4970867;28;20263;-66
2022/05/27 10:02:17;;;;;;;0.20;0.20;;;;;;;30.57;29.58;95361.28;4971319;28;20199;-67
2022/05/27 10:05:16;;;;;;;0.50;0.50;;;;;;;29.95;30.31;95356.66;4973936;28;20266;-66
2022/05/27 10:07:49;;;;;;;2.00;0.93;;;;;;;30.25;30.61;95360.13;4968542;28;20238;-68
2022/05/27 10:10:28;;;;;;;0.33;0.33;;;;;;;30.30;30.60;95350.94;4972756;28;20602;-66
2022/05/27 10:13:13;;;;;;;0.20;0.20;;;;;;;30.68;30.50;95340.53;4971154;28;20199;-66
2022/05/27 10:15:40;;;;;;;5.93;1.40;;;;;;;30.78;29.13;95337.13;4970930;28;20230;-65
2022/05/27 10:18:26;;;;;;;0.50;0.50;;;;;;;31.48;29.14;95330.75;4971066;28;20202;-65
2022/05/27 10:21:16;;;;;;;1.63;1.07;;;;;;;31.35;27.31;95337.63;4971094;28;20227;-68
2022/05/27 10:23:46;;;;;;;0.97;0.63;;;;;;;31.43;27.64;95331.13;4970414;28;20588;-66
2022/05/27 10:26:22;;;;;;;0.30;0.30;;;;;;;31.61;27.32;95332.78;4970501;28;20187;-66
2022/05/27 10:29:19;;;;;;;0.20;0.20;;;;;;;31.54;27.78;95326.53;4954778;28;20203;-67
2022/05/27 10:31:51;;;;;;;0.40;0.40;;;;;;;31.69;27.43;95325.47;4958810;28;20207;-67
2022/05/27 10:34:36;;;;;;;0.30;0.30;;;;;;;31.35;28.49;95319.47;4953210;28;20230;-65
2022/05/27 10:37:16;;;;;;;1.30;1.23;;;;;;;31.95;28.23;95317.13;4971085;28;20203;-68
2022/05/27 10:39:59;;;;;;;0.87;0.87;;;;;;;31.93;27.24;95310.53;4970426;28;20205;-65
2022/05/27 10:42:29;;;;;;;0.93;0.50;;;;;;;31.51;27.09;95306.44;4970382;28;20597;-65
2022/05/27 10:45:12;;;;;;;0.10;0.10;;;;;;;31.75;27.96;95303.03;4970331;28;20203;-67
2022/05/27 10:48:00;;;;;;;1.07;0.77;;;;;;;32.22;27.37;95304.81;4971506;28;20266;-67
2022/05/27 10:51:04;;;;;;;2.73;0.30;;;;;;;32.03;26.54;95299.72;4974888;28;20249;-67
2022/05/27 10:53:50;;;;;;;0.30;0.30;;;;;;;32.43;26.92;95299.47;4974373;28;20752;-66
2022/05/27 11:02:04;;;;;;;0.40;0.40;;;;;;;32.51;25.78;95298.34;4974260;28;20237;-68
2022/05/27 11:02:59;;;;;;;0.33;0.33;;;;;;;33.00;24.41;95270.47;4974436;28;20207;-64
2022/05/27 11:05:47;;;;;;;0.50;0.50;;;;;;;32.96;26.29;95275.09;4974240;28;20711;-65
2022/05/27 11:08:25;;;;;;;0.40;0.40;;;;;;;32.41;24.54;95269.19;4974121;28;20957;-64
2022/05/27 11:10:59;;;;;;;0.67;0.50;;;;;;;32.88;25.36;95268.13;4973966;28;20243;-65
2022/05/27 11:16:35;;;;;;;0.40;0.40;;;;;;;33.28;24.99;95258.78;4974661;28;20191;-65
2022/05/27 11:19:23;;;;;;;1.40;1.00;;;;;;;32.78;25.00;95252.59;4974374;28;20994;-66
2022/05/27 11:21:56;;;;;;;0.60;0.60;;;;;;;32.13;24.83;95250.19;4974967;28;20239;-64
2022/05/27 11:24:48;;;;;;;2.27;0.67;;;;;;;32.55;25.11;95250.28;4976380;28;20196;-67
2022/05/27 11:27:54;;;;;;;0.60;0.60;;;;;;;32.97;25.02;95240.59;4974524;28;20250;-65
2022/05/27 11:30:28;;;;;;;0.30;0.30;;;;;;;33.24;25.28;95237.06;4973766;28;20195;-65
2022/05/27 11:33:02;;;;;;;0.30;0.30;;;;;;;33.10;25.37;95222.75;4973765;28;20202;-66
2022/05/27 11:36:13;;;;;;;4.23;1.63;;;;;;;33.38;26.08;95220.72;4973757;28;20604;-66
2022/05/27 11:38:49;;;;;;;0.30;0.30;;;;;;;33.41;24.83;95219.94;4913614;29;20684;-67
2022/05/27 11:41:38;;;;;;;0.50;0.33;;;;;;;32.95;24.41;95218.50;4968707;28;20213;-64
2022/05/27 11:44:20;;;;;;;0.87;0.87;;;;;;;33.56;24.25;95215.25;4956245;28;20582;-65
2022/05/27 11:47:13;;;;;;;0.40;0.40;;;;;;;33.61;24.80;95206.72;4973440;28;20729;-66
2022/05/27 11:49:52;;;;;;;0.53;0.53;;;;;;;33.95;25.01;95205.00;4973905;28;20328;-66
2022/05/27 11:52:43;;;;;;;0.77;0.77;;;;;;;33.44;24.45;95197.41;4973373;28;20202;-66
2022/05/27 11:55:25;;;;;;;0.90;0.90;;;;;;;33.65;24.34;95197.34;4973362;28;20355;-65
2022/05/27 11:58:21;;;;;;;0.33;0.33;;;;;;;33.41;25.15;95181.13;4973238;28;20230;-66
2022/05/27 12:01:15;;;;;;;0.50;0.50;;;;;;;33.90;24.61;95186.38;4973207;28;20200;-67
2022/05/27 12:03:55;;;;;;;0.53;0.53;;;;;;;33.54;24.50;95179.56;4973405;28;20671;-65
2022/05/27 12:06:59;;;;;;;1.43;0.93;;;;;;;33.16;24.13;95180.41;4972973;28;20218;-65
2022/05/27 12:09:30;;;;;;;0.67;0.60;;;;;;;33.85;24.22;95170.44;4960163;28;20207;-66
2022/05/27 12:12:09;;;;;;;0.43;0.43;;;;;;;34.08;25.12;95165.31;4972973;28;20773;-67
2022/05/27 12:14:42;;;;;;;0.43;0.43;;;;;;;34.35;24.19;95162.78;4973134;28;20218;-65
2022/05/27 12:17:14;;;;;;;9.73;0.70;;;;;;;33.87;23.37;95162.69;4972972;28;20214;-65
2022/05/27 12:19:47;;;;;;;1.67;0.80;;;;;;;33.25;24.50;95161.78;4972947;28;20211;-65
2022/05/27 12:22:21;;;;;;;0.47;0.47;;;;;;;34.16;24.79;95155.16;4972727;28;20322;-67
2022/05/27 12:25:10;;;;;;;2.77;1.50;;;;;;;34.16;23.51;95145.03;4972856;28;20270;-66
2022/05/27 12:27:37;;;;;;;1.20;0.87;;;;;;;34.15;23.92;95143.50;4972802;28;20585;-65
2022/05/27 12:30:12;;;;;;;0.30;0.30;;;;;;;33.94;23.96;95138.19;4972979;28;20183;-66
2022/05/27 12:32:42;;;;;;;0.60;0.60;;;;;;;34.60;23.76;95131.47;4972573;28;20199;-66